createdAt,value
2019-05-20T00:04:54.658Z,16.97
2019-05-20T00:11:00.646Z,16.20
2019-05-20T00:17:06.730Z,16.20
2019-05-20T00:23:12.657Z,17.00
2019-05-20T00:29:18.963Z,16.50
2019-05-20T00:35:24.780Z,15.23
2019-05-20T00:41:30.588Z,16.10
2019-05-20T00:47:37.584Z,14.70
2019-05-20T00:53:43.886Z,15.10
2019-05-20T00:59:49.775Z,16.20
2019-05-20T01:05:55.814Z,16.07
2019-05-20T01:12:02.064Z,17.40
2019-05-20T01:18:08.276Z,18.30
2019-05-20T01:24:14.521Z,20.10
2019-05-20T01:30:21.284Z,28.40
2019-05-20T01:36:27.417Z,29.13
2019-05-20T01:42:33.212Z,22.20
2019-05-20T01:48:39.119Z,17.40
2019-05-20T01:54:45.193Z,17.23
2019-05-20T02:00:51.410Z,18.73
2019-05-20T02:06:58.898Z,18.77
2019-05-20T02:13:04.980Z,19.30
2019-05-20T02:19:11.117Z,21.13
2019-05-20T02:25:17.034Z,15.30
2019-05-20T02:31:22.772Z,18.87
2019-05-20T02:37:28.777Z,19.03
2019-05-20T02:43:35.178Z,21.57
2019-05-20T02:49:40.943Z,23.60
2019-05-20T02:55:46.821Z,27.40
2019-05-20T03:01:52.927Z,50.13
2019-05-20T03:07:59.345Z,26.67
2019-05-20T03:14:05.605Z,24.10
2019-05-20T03:20:11.513Z,33.90
2019-05-20T03:26:17.331Z,86.13
2019-05-20T03:32:25.785Z,95.13
2019-05-20T03:38:31.595Z,73.60
2019-05-20T03:44:37.378Z,87.87
2019-05-20T03:50:43.114Z,89.77
2019-05-20T03:56:49.655Z,82.20
2019-05-20T04:02:58.505Z,71.87
2019-05-20T04:09:05.462Z,74.03
2019-05-20T04:15:11.563Z,73.90
2019-05-20T04:21:17.421Z,74.17
2019-05-20T04:27:23.195Z,78.87
2019-05-20T04:33:29.191Z,88.53
2019-05-20T04:39:35.158Z,97.07
2019-05-20T04:45:41.095Z,97.33
2019-05-20T04:51:46.973Z,105.57
2019-05-20T04:57:52.965Z,92.43
2019-05-20T05:03:58.767Z,92.73
2019-05-20T05:10:05.009Z,79.13
2019-05-20T05:16:10.891Z,89.00
2019-05-20T05:22:16.795Z,78.90
2019-05-20T05:28:22.593Z,78.73
2019-05-20T05:34:28.922Z,74.97
2019-05-20T05:40:35.407Z,71.80
2019-05-20T05:46:41.156Z,71.33
2019-05-20T05:52:46.990Z,73.03
2019-05-20T05:58:53.581Z,73.03
2019-05-20T06:04:59.918Z,82.20
2019-05-20T06:11:05.677Z,79.43
2019-05-20T06:17:11.490Z,86.37
2019-05-20T06:23:17.330Z,75.50
2019-05-20T06:29:23.094Z,65.77
2019-05-20T06:35:29.101Z,60.43
2019-05-20T06:41:35.302Z,53.60
2019-05-20T06:47:41.062Z,51.77
2019-05-20T06:53:47.769Z,53.27
2019-05-20T06:59:53.595Z,58.83
2019-05-20T07:05:59.360Z,51.43
2019-05-20T07:12:05.949Z,41.57
2019-05-20T07:18:11.857Z,43.37
2019-05-20T07:24:17.715Z,54.27
2019-05-20T07:30:24.102Z,49.80
2019-05-20T07:36:29.843Z,61.53
2019-05-20T07:42:35.797Z,45.17
2019-05-20T07:48:43.126Z,42.93
2019-05-20T07:54:49.818Z,36.07
2019-05-20T08:00:55.617Z,45.80
2019-05-20T08:07:01.556Z,44.03
2019-05-20T08:13:07.414Z,36.07
2019-05-20T08:19:13.446Z,59.43
2019-05-20T08:25:19.776Z,40.53
2019-05-20T08:37:45.811Z,38.47
2019-05-20T08:43:49.405Z,37.93
2019-05-20T08:49:55.500Z,36.37
2019-05-20T08:56:01.435Z,36.27
2019-05-20T09:02:07.617Z,32.90
2019-05-20T09:08:13.421Z,31.87
2019-05-20T09:14:19.235Z,35.93
2019-05-20T09:20:25.421Z,35.37
2019-05-20T09:26:31.351Z,35.83
2019-05-20T09:32:42.345Z,33.90
2019-05-20T09:38:45.982Z,31.27
2019-05-20T09:44:51.863Z,32.90
2019-05-20T09:50:57.919Z,33.77
2019-05-20T09:57:03.734Z,30.97
2019-05-20T10:03:09.913Z,30.63
2019-05-20T10:09:15.747Z,31.53
2019-05-20T10:15:22.721Z,30.77
2019-05-20T10:21:28.838Z,32.23
2019-05-20T10:27:35.356Z,33.87
2019-05-20T10:33:41.246Z,33.83
2019-05-20T10:39:47.444Z,32.87
2019-05-20T10:45:53.325Z,33.83
2019-05-20T10:51:59.075Z,37.57
2019-05-20T10:58:04.875Z,33.20
2019-05-20T11:04:10.726Z,34.43
2019-05-20T11:10:16.965Z,35.63
2019-05-20T11:16:22.791Z,35.43
2019-05-20T11:22:29.110Z,38.50
2019-05-20T11:28:35.037Z,39.73
2019-05-20T11:34:40.869Z,39.67
2019-05-20T11:40:47.164Z,43.70
2019-05-20T11:46:53.366Z,40.17
2019-05-20T11:52:59.415Z,39.63
2019-05-20T11:59:06.505Z,39.73
2019-05-20T12:05:12.759Z,38.40
2019-05-20T12:11:18.532Z,40.27
2019-05-20T12:17:24.695Z,46.00
2019-05-20T12:23:30.886Z,45.63
2019-05-20T12:29:54.674Z,50.43
2019-05-20T12:36:02.267Z,47.80
2019-05-20T12:42:08.139Z,54.87
2019-05-20T12:48:14.127Z,50.50
2019-05-20T12:54:19.831Z,52.23
2019-05-20T13:00:26.058Z,48.03
2019-05-20T13:06:31.841Z,50.40
2019-05-20T13:12:39.661Z,44.70
2019-05-20T13:18:55.334Z,39.63
2019-05-20T13:24:53.321Z,45.83
2019-05-20T13:30:59.093Z,42.97
2019-05-20T13:37:04.893Z,46.43
2019-05-20T13:43:12.678Z,45.67
2019-05-20T13:49:18.561Z,44.80
2019-05-20T13:55:27.977Z,44.07
2019-05-20T14:01:34.177Z,46.53
2019-05-20T14:07:40.676Z,48.70
2019-05-20T14:13:46.500Z,54.17
2019-05-20T14:19:52.554Z,52.50
2019-05-20T14:25:58.897Z,48.27
2019-05-20T14:32:04.730Z,51.90
2019-05-20T14:38:10.507Z,52.33
2019-05-20T14:44:16.453Z,48.97
2019-05-20T14:50:22.635Z,47.57
2019-05-20T14:56:28.488Z,42.67
2019-05-20T15:02:34.258Z,38.83
2019-05-20T15:08:44.434Z,36.77
2019-05-20T15:14:50.645Z,45.43
2019-05-20T15:20:57.238Z,50.43
2019-05-20T15:27:03.171Z,44.90
2019-05-20T15:33:09.058Z,40.57
2019-05-20T15:39:14.922Z,41.00
2019-05-20T15:45:21.024Z,43.17
2019-05-20T15:51:26.925Z,39.27
2019-05-20T15:57:33.191Z,43.63
2019-05-20T16:03:39.174Z,45.23
2019-05-20T16:09:45.227Z,48.50
2019-05-20T16:15:51.529Z,46.87
2019-05-20T16:21:57.520Z,46.63
2019-05-20T16:28:03.551Z,46.83
2019-05-20T16:34:09.439Z,46.00
2019-05-20T16:40:15.582Z,46.57
2019-05-20T16:46:21.626Z,55.90
2019-05-20T16:52:27.466Z,46.33
2019-05-20T16:58:33.247Z,45.63
2019-05-20T17:04:39.074Z,46.07
2019-05-20T17:10:45.164Z,42.73
2019-05-20T17:16:51.072Z,46.40
2019-05-20T17:22:56.970Z,44.60
2019-05-20T17:29:02.765Z,42.10
2019-05-20T17:35:09.110Z,42.30
2019-05-20T17:41:14.879Z,40.17
2019-05-20T17:47:21.004Z,40.67
2019-05-20T17:53:27.388Z,40.00
2019-05-20T17:59:33.205Z,40.93
2019-05-20T18:05:39.361Z,37.97
2019-05-20T18:11:46.013Z,39.10
2019-05-20T18:17:52.657Z,38.03
2019-05-20T18:23:58.632Z,39.00
2019-05-20T18:30:04.721Z,35.73
2019-05-20T18:36:10.814Z,34.97
2019-05-20T18:42:17.360Z,35.33
2019-05-20T18:48:23.408Z,33.77
2019-05-20T18:54:29.712Z,31.80
2019-05-20T19:00:35.917Z,32.33
2019-05-20T19:06:42.326Z,32.23
2019-05-20T19:12:48.243Z,32.50
2019-05-20T19:18:55.127Z,35.50
2019-05-20T19:25:02.977Z,37.03
2019-05-20T19:31:08.937Z,37.33
2019-05-20T19:37:14.961Z,39.27
2019-05-20T19:43:20.875Z,38.40
2019-05-20T19:49:27.188Z,39.90
2019-05-20T19:55:33.028Z,41.23
2019-05-20T20:01:38.827Z,43.90
2019-05-20T20:07:44.663Z,44.17
2019-05-20T20:13:50.418Z,45.07
2019-05-20T20:19:58.262Z,42.73
2019-05-20T20:26:04.108Z,45.60
2019-05-20T20:32:10.199Z,47.93
2019-05-20T20:38:16.161Z,46.13
2019-05-20T20:44:21.995Z,43.87
2019-05-20T20:50:28.079Z,49.33
2019-05-20T20:56:34.407Z,49.37
2019-05-20T21:02:52.107Z,47.97
2019-05-20T21:08:48.005Z,48.50
2019-05-20T21:14:53.820Z,44.83
2019-05-20T21:20:59.627Z,55.47
2019-05-20T21:27:05.618Z,47.77
2019-05-20T21:33:11.548Z,45.17
2019-05-20T21:39:17.604Z,47.73
2019-05-20T21:45:23.453Z,44.07
2019-05-20T21:51:29.277Z,51.27
2019-05-20T21:57:35.326Z,54.60
2019-05-20T22:03:41.367Z,50.27
2019-05-20T22:09:47.174Z,51.80
2019-05-20T22:15:53.353Z,50.20
2019-05-20T22:22:07.002Z,61.33
2019-05-20T22:28:13.182Z,53.87
2019-05-20T22:34:19.186Z,41.23
2019-05-20T22:40:25.238Z,38.60
2019-05-20T22:46:31.046Z,37.30
2019-05-20T22:52:37.018Z,35.27
2019-05-20T22:58:42.984Z,40.20
2019-05-20T23:04:48.961Z,52.00
2019-05-20T23:10:54.845Z,58.50
2019-05-20T23:17:00.867Z,58.73
2019-05-20T23:23:06.678Z,62.23
2019-05-20T23:29:12.446Z,69.40
2019-05-20T23:35:18.531Z,69.80
2019-05-20T23:41:24.402Z,72.93
2019-05-20T23:47:30.304Z,72.10
2019-05-20T23:53:37.913Z,67.53
2019-05-20T23:59:43.657Z,44.17
